createdAt,value
2023-02-28T00:00:37.718Z,2.60
2023-02-28T00:03:05.101Z,2.50
2023-02-28T00:05:32.076Z,3.00
2023-02-28T00:07:58.769Z,2.50
2023-02-28T00:10:27.643Z,2.50
2023-02-28T00:12:59.784Z,2.60
2023-02-28T00:15:27.247Z,2.20
2023-02-28T00:17:54.278Z,2.20
2023-02-28T00:20:21.447Z,3.20
2023-02-28T00:22:49.809Z,2.30
2023-02-28T00:25:23.926Z,2.70
2023-02-28T00:27:51.168Z,2.20
2023-02-28T00:30:22.331Z,2.70
2023-02-28T00:32:50.322Z,2.10
2023-02-28T00:35:17.269Z,2.70
2023-02-28T00:37:44.084Z,2.20
2023-02-28T00:40:12.412Z,2.40
2023-02-28T00:42:40.025Z,2.60
2023-02-28T00:45:08.839Z,2.40
2023-02-28T00:47:38.315Z,2.20
2023-02-28T00:50:06.296Z,2.40
2023-02-28T00:52:33.472Z,2.80
2023-02-28T00:55:00.437Z,2.30
2023-02-28T00:57:27.644Z,2.10
2023-02-28T00:59:57.333Z,2.00
2023-02-28T01:02:24.181Z,3.10
2023-02-28T01:04:53.207Z,1.80
2023-02-28T01:07:20.018Z,1.70
2023-02-28T01:09:47.268Z,1.80
2023-02-28T01:12:15.402Z,3.30
2023-02-28T01:14:43.133Z,1.50
2023-02-28T01:17:09.954Z,1.80
2023-02-28T01:19:39.662Z,1.90
2023-02-28T01:22:06.808Z,2.10
2023-02-28T01:24:36.215Z,2.40
2023-02-28T01:27:03.201Z,3.00
2023-02-28T01:29:30.307Z,2.40
2023-02-28T01:31:57.704Z,2.00
2023-02-28T01:34:24.640Z,1.80
2023-02-28T01:36:51.761Z,2.10
2023-02-28T01:39:20.039Z,1.80
2023-02-28T01:41:46.912Z,1.80
2023-02-28T01:44:51.797Z,3.00
2023-02-28T01:47:18.533Z,2.30
2023-02-28T01:49:45.394Z,2.30
2023-02-28T01:52:18.474Z,2.50
2023-02-28T01:54:52.719Z,2.40
2023-02-28T01:57:23.341Z,2.60
2023-02-28T01:59:52.935Z,2.60
2023-02-28T02:02:23.014Z,2.60
2023-02-28T02:05:03.742Z,1.50
2023-02-28T02:07:33.305Z,1.70
2023-02-28T02:10:02.529Z,1.70
2023-02-28T02:12:50.968Z,2.30
2023-02-28T02:15:34.926Z,2.10
2023-02-28T02:18:08.535Z,2.20
2023-02-28T02:21:12.028Z,1.60
2023-02-28T02:23:45.134Z,1.60
2023-02-28T02:26:35.718Z,2.30
2023-02-28T02:29:54.301Z,1.80
2023-02-28T02:32:44.262Z,2.50
2023-02-28T02:35:17.707Z,2.10
2023-02-28T02:38:13.897Z,1.70
2023-02-28T02:41:04.601Z,2.50
2023-02-28T02:43:35.326Z,2.00
2023-02-28T02:46:06.060Z,1.90
2023-02-28T02:48:34.540Z,2.10
2023-02-28T02:51:12.341Z,1.90
2023-02-28T02:53:53.242Z,2.30
2023-02-28T02:56:21.695Z,2.00
2023-02-28T02:58:49.859Z,1.80
2023-02-28T03:01:28.346Z,2.50
2023-02-28T03:04:03.622Z,1.40
2023-02-28T03:06:30.686Z,2.30
2023-02-28T03:08:57.622Z,2.00
2023-02-28T03:11:24.462Z,2.30
2023-02-28T03:14:20.081Z,1.90
2023-02-28T03:17:23.720Z,2.50
2023-02-28T03:20:03.812Z,2.30
2023-02-28T03:22:39.810Z,2.10
2023-02-28T03:25:21.184Z,2.40
2023-02-28T03:28:14.346Z,3.30
2023-02-28T03:31:29.124Z,2.90
2023-02-28T03:34:06.440Z,2.30
2023-02-28T03:36:44.303Z,1.90
2023-02-28T03:39:22.618Z,1.80
2023-02-28T03:42:01.183Z,2.60
2023-02-28T03:44:34.969Z,1.50
2023-02-28T03:47:05.471Z,1.10
2023-02-28T03:49:54.628Z,2.00
2023-02-28T03:52:22.789Z,1.70
2023-02-28T03:54:52.642Z,1.80
2023-02-28T03:57:57.036Z,2.00
2023-02-28T04:00:33.617Z,2.00
2023-02-28T04:03:00.359Z,2.60
2023-02-28T04:05:32.860Z,1.80
2023-02-28T04:08:07.150Z,2.40
2023-02-28T04:10:33.845Z,1.50
2023-02-28T04:13:00.693Z,2.50
2023-02-28T04:15:28.216Z,2.00
2023-02-28T04:17:55.143Z,2.00
2023-02-28T04:20:22.080Z,2.00
2023-02-28T04:22:48.938Z,2.30
2023-02-28T04:25:15.807Z,2.40
2023-02-28T04:27:44.967Z,1.50
2023-02-28T04:30:13.164Z,2.60
2023-02-28T04:32:39.980Z,2.40
2023-02-28T04:35:07.841Z,2.40
2023-02-28T04:37:35.363Z,2.60
2023-02-28T04:40:02.809Z,1.80
2023-02-28T04:42:36.025Z,2.80
2023-02-28T04:45:03.825Z,1.90
2023-02-28T04:47:30.746Z,2.40
2023-02-28T04:49:57.640Z,3.70
2023-02-28T05:04:14.916Z,2.10
2023-02-28T05:06:43.089Z,2.60
2023-02-28T05:09:11.848Z,2.10
2023-02-28T05:11:40.046Z,2.40
2023-02-28T05:14:12.217Z,2.30
2023-02-28T05:16:39.170Z,3.00
2023-02-28T05:19:06.390Z,2.50
2023-02-28T05:21:34.911Z,2.00
2023-02-28T05:24:03.609Z,3.30
2023-02-28T05:26:30.869Z,2.10
2023-02-28T05:28:58.088Z,1.80
2023-02-28T05:31:25.505Z,2.60
2023-02-28T05:33:52.490Z,3.10
2023-02-28T05:36:21.080Z,2.60
2023-02-28T05:38:48.905Z,2.20
2023-02-28T05:41:20.532Z,1.80
2023-02-28T05:43:48.332Z,1.90
2023-02-28T05:46:15.531Z,2.20
2023-02-28T05:48:42.793Z,3.30
2023-02-28T05:51:09.841Z,3.10
2023-02-28T05:53:36.596Z,1.80
2023-02-28T05:56:04.174Z,2.00
2023-02-28T05:58:35.158Z,2.70
2023-02-28T06:01:20.536Z,2.10
2023-02-28T06:03:47.804Z,1.70
2023-02-28T06:06:14.539Z,2.60
2023-02-28T06:08:43.934Z,1.90
2023-02-28T06:11:14.062Z,1.60
2023-02-28T06:13:41.279Z,1.40
2023-02-28T06:16:09.794Z,2.10
2023-02-28T06:18:37.860Z,3.10
2023-02-28T06:21:04.896Z,2.40
2023-02-28T06:23:32.750Z,2.00
2023-02-28T06:25:59.620Z,1.90
2023-02-28T06:28:27.281Z,2.40
2023-02-28T06:30:54.938Z,4.10
2023-02-28T06:33:21.791Z,3.00
2023-02-28T06:35:52.042Z,3.10
2023-02-28T06:38:19.060Z,3.10
2023-02-28T06:40:55.744Z,2.10
2023-02-28T06:43:23.532Z,2.70
2023-02-28T06:45:50.527Z,3.90
2023-02-28T06:48:21.998Z,2.80
2023-02-28T06:50:49.682Z,2.60
2023-02-28T06:53:17.014Z,2.50
2023-02-28T06:55:43.960Z,4.30
2023-02-28T06:58:19.200Z,3.60
2023-02-28T07:00:46.456Z,2.60
2023-02-28T07:03:15.857Z,2.90
2023-02-28T07:05:43.002Z,3.90
2023-02-28T07:08:12.285Z,3.80
2023-02-28T07:10:39.145Z,3.30
2023-02-28T07:13:06.300Z,3.70
2023-02-28T07:15:35.533Z,3.90
2023-02-28T07:18:03.777Z,2.70
2023-02-28T07:20:30.823Z,2.60
2023-02-28T07:22:57.495Z,3.50
2023-02-28T07:25:27.336Z,3.30
2023-02-28T07:27:55.645Z,2.80
2023-02-28T07:30:22.413Z,3.10
2023-02-28T07:32:50.358Z,3.00
2023-02-28T07:35:17.519Z,4.70
2023-02-28T07:37:44.355Z,3.80
2023-02-28T07:40:12.076Z,3.00
2023-02-28T07:42:42.929Z,2.80
2023-02-28T07:45:12.022Z,4.20
2023-02-28T07:47:39.418Z,2.70
2023-02-28T07:50:08.059Z,4.70
2023-02-28T07:52:34.950Z,3.00
2023-02-28T07:55:01.990Z,3.20
2023-02-28T07:57:29.042Z,4.70
2023-02-28T07:59:56.492Z,2.90
2023-02-28T08:02:23.548Z,3.40
2023-02-28T08:04:51.736Z,3.50
2023-02-28T08:07:38.374Z,4.70
2023-02-28T08:10:06.197Z,3.90
2023-02-28T08:12:33.138Z,2.90
2023-02-28T08:14:59.878Z,3.80
2023-02-28T08:17:26.928Z,2.70
2023-02-28T08:19:54.079Z,3.40
2023-02-28T08:22:21.532Z,2.70
2023-02-28T08:24:49.809Z,3.10
2023-02-28T08:27:17.879Z,4.10
2023-02-28T08:29:46.360Z,3.90
2023-02-28T08:32:27.491Z,3.50
2023-02-28T08:34:56.021Z,3.80
2023-02-28T08:37:23.077Z,3.90
2023-02-28T08:39:50.315Z,5.40
2023-02-28T08:42:17.545Z,3.10
2023-02-28T08:44:44.168Z,4.50
2023-02-28T08:47:11.182Z,4.00
2023-02-28T08:49:37.996Z,3.10
2023-02-28T08:52:05.159Z,4.00
2023-02-28T08:54:33.837Z,2.70
2023-02-28T08:57:00.777Z,3.40
2023-02-28T08:59:28.258Z,3.30
2023-02-28T09:01:55.794Z,2.70
2023-02-28T09:04:25.129Z,3.70
2023-02-28T09:06:52.450Z,2.80
2023-02-28T09:09:20.426Z,3.00
2023-02-28T09:11:47.471Z,2.90
2023-02-28T09:14:14.721Z,3.30
2023-02-28T09:16:42.089Z,3.00
2023-02-28T09:19:12.100Z,3.00
2023-02-28T09:21:39.656Z,3.60
2023-02-28T09:24:07.011Z,2.90
2023-02-28T09:26:39.116Z,3.60
2023-02-28T09:29:17.196Z,3.70
2023-02-28T09:31:44.186Z,2.30
2023-02-28T09:34:11.292Z,3.00
2023-02-28T09:36:45.136Z,2.90
2023-02-28T09:39:15.000Z,3.30
2023-02-28T09:41:50.880Z,3.10
2023-02-28T09:44:21.242Z,3.60
2023-02-28T09:46:50.791Z,3.40
2023-02-28T09:49:19.782Z,3.30
2023-02-28T09:51:51.850Z,3.60
2023-02-28T09:54:22.593Z,2.80
2023-02-28T09:57:07.766Z,3.40
2023-02-28T09:59:53.166Z,3.00
2023-02-28T10:02:32.273Z,3.60
2023-02-28T10:05:10.799Z,2.90
2023-02-28T10:07:59.549Z,3.10
2023-02-28T10:10:43.095Z,2.50
2023-02-28T10:13:18.004Z,3.20
2023-02-28T10:15:45.669Z,2.70
2023-02-28T10:18:15.904Z,3.60
2023-02-28T10:20:42.632Z,3.40
2023-02-28T10:23:20.958Z,3.70
2023-02-28T10:26:05.529Z,2.70
2023-02-28T10:28:32.879Z,2.50
2023-02-28T10:31:00.176Z,3.00
2023-02-28T10:33:34.625Z,4.10
2023-02-28T10:36:02.354Z,3.90
2023-02-28T10:38:36.618Z,3.80
2023-02-28T10:41:05.197Z,3.50
2023-02-28T10:43:32.555Z,2.90
2023-02-28T10:46:15.230Z,2.60
2023-02-28T10:48:48.405Z,2.60
2023-02-28T10:51:16.755Z,2.80
2023-02-28T10:53:59.501Z,4.10
2023-02-28T10:56:27.744Z,2.70
2023-02-28T10:59:03.085Z,3.20
2023-02-28T11:01:32.927Z,3.60
2023-02-28T11:04:00.202Z,5.10
2023-02-28T11:06:30.303Z,3.10
2023-02-28T11:09:03.230Z,2.70
2023-02-28T11:11:32.294Z,2.80
2023-02-28T11:14:05.232Z,3.80
2023-02-28T11:16:34.008Z,2.50
2023-02-28T11:19:07.302Z,3.50
2023-02-28T11:21:35.313Z,4.60
2023-02-28T11:24:24.858Z,3.90
2023-02-28T11:26:51.745Z,3.10
2023-02-28T11:29:22.794Z,3.60
2023-02-28T11:32:18.954Z,3.70
2023-02-28T11:34:46.539Z,3.20
2023-02-28T11:37:18.614Z,3.40
2023-02-28T11:39:45.942Z,2.30
2023-02-28T11:42:15.859Z,2.50
2023-02-28T11:44:51.798Z,4.40
2023-02-28T11:47:27.431Z,3.30
2023-02-28T11:50:16.055Z,2.70
2023-02-28T11:52:46.284Z,3.00
2023-02-28T11:55:26.834Z,2.70
2023-02-28T11:58:17.409Z,2.60
2023-02-28T12:01:07.751Z,3.20
2023-02-28T12:03:44.397Z,3.40
2023-02-28T12:08:57.113Z,4.20
2023-02-28T12:12:00.826Z,3.70
2023-02-28T12:14:41.518Z,3.40
2023-02-28T12:17:41.413Z,2.50
2023-02-28T12:20:37.540Z,3.40
2023-02-28T12:23:19.791Z,2.90
2023-02-28T12:26:11.985Z,3.40
2023-02-28T12:28:51.009Z,3.20
2023-02-28T12:31:29.630Z,3.90
2023-02-28T12:34:04.465Z,3.40
2023-02-28T12:36:31.588Z,3.40
2023-02-28T12:39:04.393Z,3.10
2023-02-28T12:41:39.952Z,4.40
2023-02-28T12:44:22.754Z,3.70
2023-02-28T12:46:51.557Z,8.20
2023-02-28T12:49:25.044Z,3.50
2023-02-28T12:51:52.604Z,8.00
2023-02-28T12:54:44.886Z,3.50
2023-02-28T12:57:36.166Z,3.00
2023-02-28T13:00:12.756Z,4.10
2023-02-28T13:02:48.890Z,5.40
2023-02-28T13:08:00.002Z,2.90
2023-02-28T13:10:39.012Z,12.70
2023-02-28T13:13:06.217Z,10.20
2023-02-28T13:15:38.533Z,8.50
2023-02-28T13:18:05.269Z,7.80
2023-02-28T13:20:36.623Z,4.00
2023-02-28T13:23:05.672Z,7.50
2023-02-28T13:25:42.294Z,7.40
2023-02-28T13:28:10.774Z,7.30
2023-02-28T13:30:53.125Z,7.70
2023-02-28T13:33:20.031Z,7.50
2023-02-28T13:35:46.920Z,7.70
2023-02-28T13:38:17.705Z,8.30
2023-02-28T13:40:44.761Z,7.30
2023-02-28T13:43:11.802Z,7.00
2023-02-28T13:45:40.181Z,7.80
2023-02-28T13:48:19.144Z,7.60
2023-02-28T13:50:46.012Z,7.60
2023-02-28T13:53:13.080Z,6.90
2023-02-28T13:56:04.865Z,7.70
2023-02-28T13:58:54.924Z,7.60
2023-02-28T14:01:57.897Z,7.50
2023-02-28T14:04:40.601Z,7.60
2023-02-28T14:07:09.838Z,7.60
2023-02-28T14:09:41.696Z,8.10
2023-02-28T14:12:46.519Z,10.90
2023-02-28T14:15:34.729Z,7.40
2023-02-28T14:18:11.743Z,7.00
2023-02-28T14:20:40.008Z,9.20
2023-02-28T14:23:48.908Z,8.90
2023-02-28T14:26:36.785Z,7.30
2023-02-28T14:29:41.822Z,7.80
2023-02-28T14:32:33.313Z,7.00
2023-02-28T14:35:06.229Z,7.80
2023-02-28T14:37:34.607Z,7.50
2023-02-28T14:40:01.766Z,8.00
2023-02-28T14:42:33.935Z,7.40
2023-02-28T14:45:01.387Z,7.30
2023-02-28T14:47:32.492Z,7.40
2023-02-28T14:50:04.159Z,7.50
2023-02-28T14:52:32.906Z,7.10
2023-02-28T14:55:01.459Z,6.80
2023-02-28T14:57:34.450Z,7.10
2023-02-28T15:00:10.911Z,6.70
2023-02-28T15:02:38.276Z,7.20
2023-02-28T15:05:17.564Z,7.50
2023-02-28T15:07:45.795Z,7.10
2023-02-28T15:10:23.982Z,7.10
2023-02-28T15:12:58.616Z,6.80
2023-02-28T15:15:36.083Z,7.00
2023-02-28T15:18:14.266Z,7.30
2023-02-28T15:20:41.784Z,7.10
2023-02-28T15:23:08.712Z,7.60
2023-02-28T15:25:41.400Z,10.00
2023-02-28T15:28:14.612Z,9.80
2023-02-28T15:30:59.947Z,4.30
2023-02-28T15:33:28.341Z,9.30
2023-02-28T15:36:17.788Z,4.80
2023-02-28T15:38:44.756Z,3.00
2023-02-28T15:41:22.859Z,3.50
2023-02-28T15:44:18.797Z,5.00
2023-02-28T15:46:55.879Z,4.90
2023-02-28T15:49:23.477Z,4.10
2023-02-28T15:51:51.236Z,4.40
2023-02-28T15:54:27.803Z,4.30
2023-02-28T15:56:57.520Z,11.70
2023-02-28T15:59:29.146Z,4.90
2023-02-28T16:02:04.901Z,4.20
2023-02-28T16:04:33.619Z,4.40
2023-02-28T16:07:01.854Z,4.60
2023-02-28T16:09:34.214Z,6.50
2023-02-28T16:12:02.411Z,14.20
2023-02-28T16:14:32.842Z,6.80
2023-02-28T16:17:05.620Z,7.20
2023-02-28T16:19:33.897Z,7.10
2023-02-28T16:22:06.112Z,5.40
2023-02-28T16:24:34.129Z,7.70
2023-02-28T16:27:00.957Z,8.70
2023-02-28T16:29:34.068Z,7.80
2023-02-28T16:32:01.174Z,6.90
2023-02-28T16:34:28.415Z,7.10
2023-02-28T16:36:55.212Z,7.00
2023-02-28T16:39:22.463Z,4.50
2023-02-28T16:41:49.713Z,5.70
2023-02-28T16:44:36.579Z,4.60
2023-02-28T16:47:04.186Z,5.30
2023-02-28T16:49:31.142Z,7.50
2023-02-28T16:51:58.705Z,4.50
2023-02-28T16:54:25.751Z,5.70
2023-02-28T16:56:52.476Z,4.20
2023-02-28T16:59:22.953Z,2.30
2023-02-28T17:01:52.131Z,3.80
2023-02-28T17:04:18.949Z,4.00
2023-02-28T17:06:48.215Z,2.70
2023-02-28T17:22:33.315Z,5.20
2023-02-28T17:25:00.255Z,7.00
2023-02-28T17:27:27.023Z,8.00
2023-02-28T17:29:53.844Z,5.40
2023-02-28T17:32:20.837Z,4.90
2023-02-28T17:34:47.692Z,5.50
2023-02-28T17:37:16.852Z,5.40
2023-02-28T17:39:44.496Z,6.10
2023-02-28T17:42:16.564Z,5.80
2023-02-28T17:44:43.610Z,6.00
2023-02-28T17:47:11.272Z,6.60
2023-02-28T17:49:38.317Z,6.00
2023-02-28T17:52:05.165Z,6.90
2023-02-28T17:54:36.411Z,7.20
2023-02-28T17:57:03.151Z,8.00
2023-02-28T17:59:33.780Z,12.80
2023-02-28T18:02:01.311Z,41.60
2023-02-28T18:04:28.205Z,13.80
2023-02-28T18:06:56.333Z,9.40
2023-02-28T18:09:23.207Z,6.50
2023-02-28T18:11:50.996Z,5.50
2023-02-28T18:14:18.936Z,5.30
2023-02-28T18:16:49.771Z,6.10
2023-02-28T18:19:17.681Z,5.00
2023-02-28T18:21:46.416Z,4.50
2023-02-28T18:24:16.138Z,4.70
2023-02-28T18:26:44.020Z,5.60
2023-02-28T18:29:21.704Z,5.80
2023-02-28T18:31:48.749Z,6.10
2023-02-28T18:34:15.711Z,4.20
2023-02-28T18:36:46.537Z,6.90
2023-02-28T18:39:14.248Z,5.70
2023-02-28T18:41:41.653Z,5.30
2023-02-28T18:44:19.001Z,3.50
2023-02-28T18:46:50.496Z,3.70
2023-02-28T18:49:18.278Z,4.70
2023-02-28T18:51:46.020Z,4.70
2023-02-28T18:54:13.375Z,5.00
2023-02-28T18:56:40.280Z,4.80
2023-02-28T18:59:07.029Z,5.30
2023-02-28T19:01:33.991Z,3.70
2023-02-28T19:04:01.384Z,4.50
2023-02-28T19:06:29.008Z,5.10
2023-02-28T19:08:59.453Z,4.40
2023-02-28T19:11:26.502Z,4.90
2023-02-28T19:13:54.096Z,4.10
2023-02-28T19:16:22.297Z,3.60
2023-02-28T19:18:49.299Z,4.10
2023-02-28T19:21:18.824Z,4.50
2023-02-28T19:23:46.141Z,4.40
2023-02-28T19:26:20.130Z,4.00
2023-02-28T19:28:47.028Z,3.90
2023-02-28T19:31:15.454Z,4.10
2023-02-28T19:33:43.252Z,4.70
2023-02-28T19:36:13.061Z,3.60
2023-02-28T19:38:41.341Z,3.80
2023-02-28T19:41:10.019Z,3.90
2023-02-28T19:43:37.077Z,5.60
2023-02-28T19:46:08.883Z,8.60
2023-02-28T19:48:36.203Z,18.60
2023-02-28T19:51:08.646Z,17.90
2023-02-28T19:53:36.335Z,10.50
2023-02-28T19:56:03.992Z,5.80
2023-02-28T19:58:31.437Z,5.50
2023-02-28T20:01:00.659Z,6.20
2023-02-28T20:03:27.636Z,5.10
2023-02-28T20:06:00.676Z,4.50
2023-02-28T20:08:28.438Z,4.50
2023-02-28T20:10:55.283Z,4.50
2023-02-28T20:13:28.033Z,3.60
2023-02-28T20:15:55.517Z,4.40
2023-02-28T20:18:22.356Z,4.90
2023-02-28T20:20:49.718Z,3.80
2023-02-28T20:23:18.096Z,5.00
2023-02-28T20:25:44.896Z,5.20
2023-02-28T20:28:11.582Z,4.80
2023-02-28T20:30:39.062Z,4.10
2023-02-28T20:33:06.341Z,4.70
2023-02-28T20:35:36.546Z,4.70
2023-02-28T20:38:03.465Z,4.70
2023-02-28T20:40:31.431Z,4.00
2023-02-28T20:43:02.983Z,4.40
2023-02-28T20:45:34.022Z,4.20
2023-02-28T20:48:00.970Z,4.40
2023-02-28T20:50:27.817Z,5.30
2023-02-28T20:52:55.502Z,4.90
2023-02-28T20:55:22.526Z,5.50
2023-02-28T20:57:50.253Z,5.70
2023-02-28T21:00:19.947Z,4.30
2023-02-28T21:02:47.484Z,4.70
2023-02-28T21:05:14.435Z,4.50
2023-02-28T21:07:41.479Z,3.50
2023-02-28T21:10:10.090Z,4.00
2023-02-28T21:12:36.981Z,3.60
2023-02-28T21:15:04.030Z,5.40
2023-02-28T21:17:32.513Z,4.10
2023-02-28T21:19:59.225Z,5.10
2023-02-28T21:22:28.484Z,4.30
2023-02-28T21:24:55.704Z,3.40
2023-02-28T21:27:22.961Z,4.10
2023-02-28T21:29:50.011Z,5.60
2023-02-28T21:32:17.182Z,4.70
2023-02-28T21:34:50.245Z,5.00
2023-02-28T21:37:17.144Z,4.80
2023-02-28T21:39:44.653Z,4.40
2023-02-28T21:42:12.452Z,4.40
2023-02-28T21:44:39.628Z,5.10
2023-02-28T21:47:06.511Z,5.20
2023-02-28T21:49:34.272Z,4.20
2023-02-28T21:52:01.258Z,4.80
2023-02-28T21:54:28.384Z,5.20
2023-02-28T21:56:55.413Z,4.60
2023-02-28T21:59:23.281Z,5.20
2023-02-28T22:01:51.099Z,4.80
2023-02-28T22:04:20.700Z,4.40
2023-02-28T22:06:52.108Z,3.70
2023-02-28T22:09:18.947Z,3.80
2023-02-28T22:11:45.900Z,4.10
2023-02-28T22:14:14.172Z,6.20
2023-02-28T22:16:54.462Z,3.50
2023-02-28T22:19:22.613Z,2.70
2023-02-28T22:21:49.750Z,4.20
2023-02-28T22:24:19.953Z,2.60
2023-02-28T22:26:48.528Z,3.20
2023-02-28T22:29:15.399Z,4.40
2023-02-28T22:31:42.134Z,3.80
2023-02-28T22:34:12.448Z,4.10
2023-02-28T22:36:40.951Z,3.20
2023-02-28T22:39:08.055Z,4.10
2023-02-28T22:41:34.836Z,3.50
2023-02-28T22:44:04.482Z,3.30
2023-02-28T22:46:32.754Z,3.20
2023-02-28T22:49:01.209Z,4.10
2023-02-28T22:51:28.247Z,3.40
2023-02-28T22:53:55.524Z,4.10
2023-02-28T22:56:26.143Z,4.40
2023-02-28T22:58:54.917Z,5.80
2023-02-28T23:01:22.930Z,4.20
2023-02-28T23:03:50.269Z,3.50
2023-02-28T23:06:24.462Z,4.10
2023-02-28T23:08:53.059Z,4.40
2023-02-28T23:11:36.321Z,4.10
2023-02-28T23:14:04.066Z,5.70
2023-02-28T23:16:39.774Z,3.50
2023-02-28T23:19:17.698Z,3.50
2023-02-28T23:21:44.873Z,4.70
2023-02-28T23:24:12.586Z,3.70
2023-02-28T23:26:43.242Z,3.20
2023-02-28T23:29:11.417Z,4.00
2023-02-28T23:31:39.676Z,3.40
2023-02-28T23:34:07.624Z,3.60
2023-02-28T23:36:34.604Z,3.70
2023-02-28T23:39:01.451Z,4.00
2023-02-28T23:41:28.598Z,3.70
2023-02-28T23:43:55.645Z,4.20
2023-02-28T23:46:22.412Z,4.90
2023-02-28T23:48:49.761Z,3.60
2023-02-28T23:51:18.631Z,3.50
2023-02-28T23:53:47.168Z,4.10
2023-02-28T23:56:16.316Z,4.20
2023-02-28T23:58:47.688Z,3.60
